»·PEaware :: N872G KSEA-KCVO

N872G :: KSEA-KCVO

FLIGHT INFORMATION

Flight Status: Arrived
Operator: Privately registered:
United States
More flights under this callsign
Pilot: Gabor H. (24209)
Aircraft: CESSNA 510 CITATION MUSTANG
(C510)
More flights by this aircraft type
Origin: KSEA Seattle-Tacoma Intl
United States
Destination: KCVO Corvallis Mun
United States
More flights between these airports :: More routes between these airports
Route: SEA7 OLM J126 UBG
File this flight plan on PilotEdge
Remarks:
Altitude:
(Current/Filed)
21,000ft
Speed:
(Current/Filed)
340kts
Departed: 08-Feb-21 07:02 PM
Arrived: 08-Feb-21 07:45 PM
Distance/Time
Traveled:
181nm/0:43
Distance/Time
To Go:
Arrived

Flight Plot

Page will automatically refresh every two minutes.

Flight plan parsing failed; only flown route is shown


Map Options




Map Legend


Flown Route
Filed Route
Departure Airport
Arrival Airport
Navaid (VOR, NDB)
Fix

Horizontal Profiles

Position Reports

Time Latitude Longitude Heading Altitude Ground
Speed
08-Feb-21 18:38 47.439171 -122.315222 55 474ft 0kts
08-Feb-21 18:39 47.439171 -122.315222 55 474ft 0kts
08-Feb-21 18:40 47.439171 -122.315222 55 474ft 0kts
08-Feb-21 18:41 47.439171 -122.315222 55 474ft 0kts
08-Feb-21 18:43 47.439171 -122.315222 55 474ft 0kts
08-Feb-21 18:44 47.439171 -122.315222 55 474ft 0kts
08-Feb-21 18:45 47.439171 -122.315222 55 474ft 0kts
08-Feb-21 18:46 47.439171 -122.315222 55 474ft 0kts
08-Feb-21 18:47 47.439171 -122.315222 55 474ft 0kts
08-Feb-21 18:48 47.439171 -122.315222 55 474ft 0kts
08-Feb-21 18:49 47.439171 -122.315222 55 474ft 0kts
08-Feb-21 18:50 47.439171 -122.315222 55 474ft 0kts
08-Feb-21 18:51 47.439171 -122.315222 55 474ft 0kts
08-Feb-21 18:52 47.439171 -122.315222 55 474ft 0kts
08-Feb-21 18:53 47.439171 -122.315222 55 474ft 0kts
08-Feb-21 18:54 47.439171 -122.315222 55 474ft 0kts
08-Feb-21 18:55 47.439171 -122.315222 55 474ft 0kts
08-Feb-21 18:56 47.439171 -122.315222 55 474ft 0kts
08-Feb-21 18:57 47.439173 -122.315219 55 474ft 0kts
08-Feb-21 18:58 47.439175 -122.315215 55 474ft 0kts
08-Feb-21 18:58 47.438945 -122.314080 147 474ft 5kts
08-Feb-21 19:00 47.438132 -122.312942 106 474ft 0kts
08-Feb-21 19:01 47.438815 -122.311210 1 474ft 15kts
08-Feb-21 19:01 47.466625 -122.309694 354 1204ft 194kts
08-Feb-21 19:03 47.531996 -122.312502 351 6581ft 199kts
08-Feb-21 19:03 47.579156 -122.315167 349 9205ft 210kts
08-Feb-21 19:04 47.611345 -122.352938 256 12487ft 202kts
08-Feb-21 19:05 47.583151 -122.426836 255 15001ft 218kts
08-Feb-21 19:06 47.529054 -122.495714 211 15097ft 323kts
08-Feb-21 19:07 47.444788 -122.534668 223 17029ft 305kts
08-Feb-21 19:08 47.370608 -122.591280 227 18993ft 297kts
08-Feb-21 19:09 47.298229 -122.648670 227 20596ft 303kts
08-Feb-21 19:10 47.220790 -122.709974 225 21144ft 334kts
08-Feb-21 19:11 47.136583 -122.775204 223 21139ft 343kts
08-Feb-21 19:12 47.052819 -122.839470 224 21142ft 339kts
08-Feb-21 19:13 46.972698 -122.902195 205 21109ft 320kts
08-Feb-21 19:14 46.880315 -122.907466 190 21137ft 342kts
08-Feb-21 19:15 46.784637 -122.911235 190 21142ft 345kts
08-Feb-21 19:16 46.688698 -122.915617 190 21146ft 346kts
08-Feb-21 19:17 46.592546 -122.920196 190 21146ft 346kts
08-Feb-21 19:18 46.496741 -122.924768 190 21156ft 345kts
08-Feb-21 19:19 46.400942 -122.929283 190 21156ft 345kts
08-Feb-21 19:20 46.304879 -122.933887 190 21156ft 345kts
08-Feb-21 19:21 46.209053 -122.938373 190 21157ft 345kts
08-Feb-21 19:22 46.113320 -122.942864 190 21156ft 345kts
08-Feb-21 19:23 46.017795 -122.947390 189 21155ft 344kts
08-Feb-21 19:24 45.922101 -122.951983 189 21155ft 343kts
08-Feb-21 19:25 45.829482 -122.956187 189 21151ft 342kts
08-Feb-21 19:26 45.734438 -122.960575 189 21152ft 342kts
08-Feb-21 19:27 45.639580 -122.965702 195 21145ft 337kts
08-Feb-21 19:28 45.548543 -122.989109 198 20193ft 323kts
08-Feb-21 19:29 45.463029 -123.012202 198 18519ft 307kts
08-Feb-21 19:30 45.380214 -123.034518 197 16913ft 300kts
08-Feb-21 19:31 45.298817 -123.056340 197 15333ft 297kts
08-Feb-21 19:32 45.218025 -123.077903 196 13765ft 295kts
08-Feb-21 19:33 45.137883 -123.099263 195 12202ft 293kts
08-Feb-21 19:34 45.059027 -123.120329 194 10666ft 282kts
08-Feb-21 19:35 44.983133 -123.140516 193 9188ft 275kts
08-Feb-21 19:36 44.908571 -123.159878 192 7737ft 272kts
08-Feb-21 19:37 44.837157 -123.178636 192 6347ft 263kts
08-Feb-21 19:38 44.766160 -123.197224 192 4962ft 258kts
08-Feb-21 19:39 44.709283 -123.254306 199 3836ft 246kts
08-Feb-21 19:40 44.641450 -123.266695 176 2903ft 244kts
08-Feb-21 19:41 44.579708 -123.277986 187 1920ft 203kts
08-Feb-21 19:42 44.534679 -123.285398 190 1304ft 120kts
08-Feb-21 19:43 44.502202 -123.291252 188 267ft 110kts
08-Feb-21 19:44 44.494858 -123.291012 7 251ft 15kts
08-Feb-21 19:45 44.498700 -123.290387 7 249ft 19kts
08-Feb-21 19:46 44.502534 -123.288302 111 248ft 8kts
08-Feb-21 19:47 44.502583 -123.285533 112 249ft 0kts
08-Feb-21 19:48 44.502583 -123.285533 112 249ft 0kts
08-Feb-21 19:49 44.502583 -123.285533 112 249ft 0kts
08-Feb-21 19:50 44.502583 -123.285533 112 249ft 0kts
08-Feb-21 19:51 44.502583 -123.285533 112 249ft 0kts

Navigation Log

Ident Type
Flight plan parsing failed, navigation log unavailable